createdAt,value
2022-12-04T00:00:39.263Z,22.57
2022-12-04T00:03:29.058Z,19.33
2022-12-04T00:06:08.498Z,21.83
2022-12-04T00:08:40.950Z,21.67
2022-12-04T00:11:12.471Z,23.23
2022-12-04T00:13:42.753Z,23.00
2022-12-04T00:16:18.282Z,23.27
2022-12-04T00:18:48.118Z,22.77
2022-12-04T00:21:18.646Z,20.70
2022-12-04T00:24:08.072Z,22.53
2022-12-04T00:26:40.236Z,22.63
2022-12-04T00:29:15.097Z,23.27
2022-12-04T00:32:05.780Z,23.23
2022-12-04T00:34:58.359Z,23.07
2022-12-04T00:37:27.269Z,21.17
2022-12-04T00:39:55.584Z,22.83
2022-12-04T00:42:25.329Z,20.73
2022-12-04T00:45:15.686Z,22.97
2022-12-04T00:48:26.736Z,23.27
2022-12-04T00:51:17.547Z,23.00
2022-12-04T00:54:06.424Z,22.83
2022-12-04T00:57:00.305Z,21.50
2022-12-04T00:59:30.362Z,22.70
2022-12-04T01:02:44.694Z,21.57
2022-12-04T01:06:20.769Z,22.90
2022-12-04T01:09:11.335Z,23.17
2022-12-04T01:11:47.228Z,23.47
2022-12-04T01:15:00.764Z,23.33
2022-12-04T01:18:13.490Z,23.30
2022-12-04T01:21:08.912Z,22.83
2022-12-04T01:23:59.053Z,22.43
2022-12-04T01:26:29.406Z,23.47
2022-12-04T01:29:41.466Z,23.03
2022-12-04T01:32:53.545Z,22.63
2022-12-04T01:35:22.080Z,23.93
2022-12-04T01:38:12.314Z,23.33
2022-12-04T01:41:07.223Z,23.27
2022-12-04T01:43:41.128Z,23.70
2022-12-04T01:46:11.938Z,23.43
2022-12-04T01:48:45.349Z,22.90
2022-12-04T01:51:40.078Z,24.17
2022-12-04T01:54:15.659Z,24.43
2022-12-04T01:56:48.871Z,25.30
2022-12-04T01:59:46.737Z,24.83
2022-12-04T02:02:21.782Z,24.00
2022-12-04T02:04:51.747Z,23.87
2022-12-04T02:07:44.090Z,23.13
2022-12-04T02:10:45.647Z,24.60
2022-12-04T02:13:21.550Z,24.03
2022-12-04T02:16:04.517Z,24.13
2022-12-04T02:18:40.569Z,22.90
2022-12-04T02:21:35.019Z,26.30
2022-12-04T02:25:07.364Z,26.40
2022-12-04T02:28:11.825Z,27.30
2022-12-04T02:30:44.955Z,25.67
2022-12-04T02:33:56.370Z,26.07
2022-12-04T02:36:28.835Z,25.07
2022-12-04T02:39:44.983Z,27.03
2022-12-04T02:42:36.167Z,25.57
2022-12-04T02:45:37.987Z,25.07
2022-12-04T02:48:09.965Z,23.87
2022-12-04T02:51:23.213Z,26.23
2022-12-04T02:54:31.408Z,23.53
2022-12-04T02:57:01.279Z,25.97
2022-12-04T02:59:53.233Z,27.20
2022-12-04T03:02:50.731Z,28.17
2022-12-04T03:05:24.501Z,27.57
2022-12-04T03:08:16.500Z,24.90
2022-12-04T03:10:51.766Z,24.80
2022-12-04T03:13:44.643Z,27.03
2022-12-04T03:16:39.384Z,27.20
2022-12-04T03:19:22.747Z,27.07
2022-12-04T03:22:05.026Z,25.47
2022-12-04T03:24:36.193Z,26.40
2022-12-04T03:27:15.267Z,26.27
2022-12-04T03:30:07.512Z,26.00
2022-12-04T03:33:01.762Z,25.27
2022-12-04T03:35:52.120Z,26.97
2022-12-04T03:38:38.769Z,28.10
2022-12-04T03:41:15.133Z,26.20
2022-12-04T03:44:12.393Z,26.93
2022-12-04T03:46:46.962Z,25.10
2022-12-04T03:49:25.600Z,24.90
2022-12-04T03:52:03.930Z,26.67
2022-12-04T03:54:37.706Z,24.17
2022-12-04T03:57:20.889Z,25.80
2022-12-04T04:00:15.658Z,27.27
2022-12-04T04:02:51.520Z,26.90
2022-12-04T04:08:37.567Z,23.93
2022-12-04T04:11:13.824Z,26.80
2022-12-04T04:14:35.984Z,27.60
2022-12-04T04:17:33.536Z,26.70
2022-12-04T04:20:24.639Z,27.50
2022-12-04T04:23:14.636Z,28.33
2022-12-04T04:26:11.391Z,27.93
2022-12-04T04:28:42.771Z,25.07
2022-12-04T04:31:21.156Z,27.17
2022-12-04T04:34:00.409Z,26.07
2022-12-04T04:36:43.774Z,24.73
2022-12-04T04:39:23.446Z,25.50
2022-12-04T04:42:03.258Z,27.80
2022-12-04T04:44:43.420Z,26.93
2022-12-04T04:47:24.415Z,25.73
2022-12-04T04:49:56.042Z,24.83
2022-12-04T04:52:26.395Z,24.60
2022-12-04T04:54:58.095Z,26.03
2022-12-04T04:57:41.127Z,28.07
2022-12-04T05:00:15.484Z,27.10
2022-12-04T05:02:45.786Z,27.63
2022-12-04T05:05:35.344Z,26.60
2022-12-04T05:08:33.658Z,22.07
2022-12-04T05:11:02.908Z,25.70
2022-12-04T05:14:11.013Z,23.73
2022-12-04T05:17:02.088Z,27.47
2022-12-04T05:19:53.335Z,23.20
2022-12-04T05:22:28.924Z,26.07
2022-12-04T05:25:26.268Z,26.50
2022-12-04T05:27:54.528Z,26.60
2022-12-04T05:30:24.334Z,27.83
2022-12-04T05:32:53.212Z,27.47
2022-12-04T05:35:21.159Z,28.80
2022-12-04T05:37:49.072Z,26.57
2022-12-04T05:40:17.288Z,26.70
2022-12-04T05:42:45.514Z,26.17
2022-12-04T05:45:13.711Z,27.73
2022-12-04T05:47:44.439Z,25.20
2022-12-04T05:50:14.741Z,25.67
2022-12-04T05:52:42.842Z,26.37
2022-12-04T05:55:10.994Z,28.23
2022-12-04T05:57:38.971Z,26.73
2022-12-04T06:00:08.907Z,25.27
2022-12-04T06:02:37.052Z,24.63
2022-12-04T06:05:07.207Z,23.53
2022-12-04T06:07:35.218Z,26.33
2022-12-04T06:10:03.282Z,29.13
2022-12-04T06:12:31.335Z,27.77
2022-12-04T06:14:59.409Z,27.33
2022-12-04T06:17:27.407Z,28.63
2022-12-04T06:19:56.501Z,26.10
2022-12-04T06:22:26.015Z,27.10
2022-12-04T06:24:54.031Z,26.40
2022-12-04T06:27:29.331Z,26.47
2022-12-04T06:29:57.531Z,25.00
2022-12-04T06:32:25.917Z,27.37
2022-12-04T06:34:55.037Z,25.63
2022-12-04T06:37:26.117Z,27.23
2022-12-04T06:39:54.703Z,26.73
2022-12-04T06:42:23.029Z,28.27
2022-12-04T06:44:50.966Z,30.60
2022-12-04T06:47:19.093Z,29.83
2022-12-04T06:49:50.659Z,26.17
2022-12-04T06:52:19.088Z,27.73
2022-12-04T06:54:49.026Z,27.80
2022-12-04T06:57:17.078Z,27.60
2022-12-04T06:59:45.001Z,26.83
2022-12-04T07:02:13.096Z,26.03
2022-12-04T07:04:41.166Z,28.07
2022-12-04T07:07:10.119Z,27.63
2022-12-04T07:09:38.113Z,27.67
2022-12-04T07:12:08.018Z,27.37
2022-12-04T07:14:36.032Z,27.77
2022-12-04T07:17:04.467Z,26.40
2022-12-04T07:19:34.903Z,25.57
2022-12-04T07:22:04.832Z,28.03
2022-12-04T07:24:32.774Z,26.00
2022-12-04T07:27:00.752Z,24.83
2022-12-04T07:29:30.098Z,28.33
2022-12-04T07:31:58.194Z,26.67
2022-12-04T07:34:26.284Z,27.23
2022-12-04T07:36:54.269Z,26.23
2022-12-04T07:39:22.253Z,25.80
2022-12-04T07:41:50.211Z,28.17
2022-12-04T07:44:18.201Z,29.93
2022-12-04T07:46:47.622Z,28.47
2022-12-04T07:49:15.559Z,28.03
2022-12-04T07:51:43.621Z,28.93
2022-12-04T07:54:12.886Z,27.03
2022-12-04T07:56:40.943Z,27.27
2022-12-04T07:59:09.000Z,27.70
2022-12-04T08:01:37.074Z,29.23
2022-12-04T08:04:06.689Z,28.20
2022-12-04T08:06:36.164Z,29.43
2022-12-04T08:09:09.593Z,27.40
2022-12-04T08:11:38.493Z,23.30
2022-12-04T08:14:08.817Z,26.50
2022-12-04T08:16:37.134Z,25.80
2022-12-04T08:19:06.698Z,27.93
2022-12-04T08:21:35.211Z,25.63
2022-12-04T08:24:03.869Z,27.83
2022-12-04T08:26:33.631Z,25.97
2022-12-04T08:29:02.462Z,26.83
2022-12-04T08:31:32.998Z,27.33
2022-12-04T08:34:02.744Z,27.63
2022-12-04T08:36:36.056Z,26.47
2022-12-04T08:39:04.744Z,26.83
2022-12-04T08:41:32.910Z,25.73
2022-12-04T08:44:01.070Z,26.30
2022-12-04T08:46:29.650Z,27.27
2022-12-04T08:48:58.221Z,26.67
2022-12-04T08:51:28.369Z,24.77
2022-12-04T08:53:59.658Z,26.87
2022-12-04T08:56:30.321Z,25.13
2022-12-04T08:58:59.932Z,26.53
2022-12-04T09:01:30.537Z,27.63
2022-12-04T09:03:59.437Z,26.47
2022-12-04T09:06:27.909Z,26.10
2022-12-04T09:08:58.128Z,24.17
2022-12-04T09:11:32.834Z,25.33
2022-12-04T09:14:02.671Z,24.87
2022-12-04T09:16:30.818Z,27.13
2022-12-04T09:18:58.992Z,23.30
2022-12-04T09:21:27.351Z,25.27
2022-12-04T09:23:55.621Z,25.67
2022-12-04T09:26:26.558Z,24.57
2022-12-04T09:28:55.420Z,25.23
2022-12-04T09:31:24.145Z,27.53
2022-12-04T09:33:52.379Z,24.93
2022-12-04T09:36:20.800Z,25.43
2022-12-04T09:38:50.616Z,25.37
2022-12-04T09:41:44.184Z,25.30
2022-12-04T09:44:20.135Z,25.87
2022-12-04T09:46:53.298Z,24.33
2022-12-04T09:49:27.479Z,26.97
2022-12-04T09:52:01.325Z,25.47
2022-12-04T09:54:35.170Z,25.43
2022-12-04T09:57:07.170Z,27.17
2022-12-04T09:59:38.434Z,25.27
2022-12-04T10:02:23.404Z,24.73
2022-12-04T10:04:51.502Z,27.40
2022-12-04T10:07:24.045Z,24.13
2022-12-04T10:09:57.366Z,25.37
2022-12-04T10:12:33.651Z,25.67
2022-12-04T10:15:12.712Z,27.30
2022-12-04T10:17:52.113Z,25.63
2022-12-04T10:20:36.209Z,25.50
2022-12-04T10:23:14.222Z,26.27
2022-12-04T10:25:43.853Z,25.20
2022-12-04T10:28:20.004Z,25.33
2022-12-04T10:30:56.458Z,25.03
2022-12-04T10:33:34.613Z,25.43
2022-12-04T10:36:03.660Z,26.80
2022-12-04T10:38:39.024Z,25.73
2022-12-04T10:41:15.226Z,26.37
2022-12-04T10:43:46.508Z,27.10
2022-12-04T10:46:20.614Z,25.57
2022-12-04T10:48:52.238Z,26.37
2022-12-04T10:51:22.940Z,29.10
2022-12-04T10:53:52.121Z,26.67
2022-12-04T10:56:23.150Z,26.03
2022-12-04T10:59:00.716Z,25.13
2022-12-04T11:01:34.696Z,23.10
2022-12-04T11:04:07.735Z,23.87
2022-12-04T11:06:36.854Z,26.00
2022-12-04T11:09:05.802Z,25.47
2022-12-04T11:11:35.797Z,20.73
2022-12-04T11:14:05.838Z,23.43
2022-12-04T11:16:39.739Z,24.73
2022-12-04T11:19:25.571Z,23.93
2022-12-04T11:21:55.594Z,23.57
2022-12-04T11:24:26.878Z,24.00
2022-12-04T11:26:55.365Z,23.23
2022-12-04T11:29:30.491Z,24.53
2022-12-04T11:32:07.560Z,22.13
2022-12-04T11:34:40.214Z,22.17
2022-12-04T11:37:21.273Z,21.93
2022-12-04T11:39:52.607Z,21.00
2022-12-04T11:42:28.013Z,19.87
2022-12-04T11:44:57.877Z,21.23
2022-12-04T11:47:31.022Z,21.07
2022-12-04T11:50:04.365Z,20.37
2022-12-04T11:52:59.372Z,22.75
2022-12-04T11:55:34.320Z,18.70
2022-12-04T11:58:27.943Z,17.23
2022-12-04T12:01:10.689Z,18.40
2022-12-04T12:03:45.626Z,17.90
2022-12-04T12:06:34.122Z,17.97
2022-12-04T12:09:13.017Z,18.70
2022-12-04T12:11:51.269Z,19.20
2022-12-04T12:14:27.232Z,20.00
2022-12-04T12:17:04.776Z,18.80
2022-12-04T12:19:50.935Z,19.30
2022-12-04T12:22:34.374Z,17.40
2022-12-04T12:25:13.081Z,18.90
2022-12-04T12:27:55.456Z,18.93
2022-12-04T12:30:25.021Z,18.93
2022-12-04T12:33:05.922Z,18.70
2022-12-04T12:35:41.912Z,19.20
2022-12-04T12:38:16.187Z,19.17
2022-12-04T12:40:48.019Z,20.93
2022-12-04T12:43:25.366Z,20.50
2022-12-04T12:46:02.045Z,20.83
2022-12-04T12:48:38.005Z,19.70
2022-12-04T12:51:30.604Z,19.20
2022-12-04T12:54:06.476Z,18.63
2022-12-04T12:56:44.667Z,18.40
2022-12-04T12:59:20.682Z,19.67
2022-12-04T13:01:58.691Z,18.63
2022-12-04T13:04:35.198Z,20.37
2022-12-04T13:07:24.081Z,18.70
2022-12-04T13:09:58.048Z,18.23
2022-12-04T13:12:27.932Z,15.27
2022-12-04T13:14:56.262Z,18.67
2022-12-04T13:17:33.470Z,18.27
2022-12-04T13:20:10.142Z,17.93
2022-12-04T13:22:50.608Z,19.27
2022-12-04T13:25:43.597Z,19.53
2022-12-04T13:28:24.745Z,18.60
2022-12-04T13:31:02.162Z,17.17
2022-12-04T13:33:59.148Z,18.73
2022-12-04T13:37:00.107Z,18.67
2022-12-04T13:40:00.411Z,18.17
2022-12-04T13:42:30.938Z,18.33
2022-12-04T13:45:01.295Z,18.07
2022-12-04T13:47:33.284Z,16.90
2022-12-04T13:50:29.299Z,16.43
2022-12-04T13:52:58.223Z,15.53
2022-12-04T13:55:41.322Z,15.73
2022-12-04T13:58:29.146Z,15.60
2022-12-04T14:01:06.144Z,16.63
2022-12-04T14:03:37.553Z,15.27
2022-12-04T14:06:21.561Z,15.90
2022-12-04T14:08:55.229Z,15.73
2022-12-04T14:11:25.873Z,15.67
2022-12-04T14:13:55.417Z,15.83
2022-12-04T14:16:26.627Z,15.80
2022-12-04T14:18:57.699Z,14.80
2022-12-04T14:21:26.929Z,13.93
2022-12-04T14:23:57.798Z,15.07
2022-12-04T14:27:03.139Z,15.10
2022-12-04T14:29:35.851Z,15.33
2022-12-04T14:32:37.295Z,15.13
2022-12-04T14:35:06.477Z,13.17
2022-12-04T14:37:39.128Z,15.43
2022-12-04T14:40:18.126Z,14.90
2022-12-04T14:42:50.009Z,15.33
2022-12-04T14:45:25.408Z,14.37
2022-12-04T14:48:09.369Z,13.53
2022-12-04T14:50:45.800Z,12.47
2022-12-04T14:53:24.894Z,13.23
2022-12-04T14:56:07.053Z,13.53
2022-12-04T14:58:40.101Z,13.30
2022-12-04T15:01:26.848Z,13.10
2022-12-04T15:03:59.890Z,12.63
2022-12-04T15:06:31.001Z,12.93
2022-12-04T15:09:14.597Z,11.53
2022-12-04T15:12:04.777Z,12.27
2022-12-04T15:14:43.886Z,14.63
2022-12-04T15:17:12.990Z,14.93
2022-12-04T15:19:41.779Z,12.77
2022-12-04T15:22:18.652Z,16.13
2022-12-04T15:24:51.953Z,13.83
2022-12-04T15:27:25.093Z,12.80
2022-12-04T15:29:59.616Z,12.33
2022-12-04T15:32:29.683Z,13.97
2022-12-04T15:35:02.289Z,13.67
2022-12-04T15:37:32.629Z,13.63
2022-12-04T15:40:02.215Z,14.37
2022-12-04T15:42:32.126Z,14.03
2022-12-04T15:45:03.688Z,13.57
2022-12-04T15:47:33.877Z,13.63
2022-12-04T15:50:11.276Z,12.63
2022-12-04T15:52:40.243Z,14.80
2022-12-04T15:55:10.678Z,13.90
2022-12-04T15:57:41.794Z,12.70
2022-12-04T16:00:25.356Z,13.87
2022-12-04T16:02:54.184Z,14.30
2022-12-04T16:05:32.826Z,14.27
2022-12-04T16:08:03.276Z,14.40
2022-12-04T16:10:33.298Z,14.07
2022-12-04T16:13:02.973Z,15.57
2022-12-04T16:15:39.889Z,11.00
2022-12-04T16:18:09.386Z,15.97
2022-12-04T16:20:39.749Z,14.07
2022-12-04T16:23:08.029Z,14.53
2022-12-04T16:25:36.487Z,13.80
2022-12-04T16:28:04.780Z,14.93
2022-12-04T16:30:35.981Z,15.30
2022-12-04T16:33:04.104Z,13.63
2022-12-04T16:35:32.259Z,14.80
2022-12-04T16:38:00.341Z,15.33
2022-12-04T16:40:29.026Z,16.10
2022-12-04T16:42:57.505Z,17.20
2022-12-04T16:45:30.072Z,17.57
2022-12-04T16:48:00.047Z,18.43
2022-12-04T16:50:29.733Z,17.10
2022-12-04T16:52:59.278Z,17.07
2022-12-04T16:55:34.237Z,17.47
2022-12-04T16:58:02.943Z,15.97
2022-12-04T17:00:31.175Z,17.00
2022-12-04T17:03:04.184Z,18.73
2022-12-04T17:05:36.006Z,17.17
2022-12-04T17:08:05.988Z,20.97
2022-12-04T17:10:34.924Z,19.03
2022-12-04T17:13:03.407Z,19.90
2022-12-04T17:15:31.917Z,19.77
2022-12-04T17:18:06.030Z,21.23
2022-12-04T17:20:42.273Z,20.90
2022-12-04T17:23:11.499Z,21.40
2022-12-04T17:25:40.039Z,22.33
2022-12-04T17:28:08.814Z,22.47
2022-12-04T17:30:37.748Z,21.83
2022-12-04T17:33:07.534Z,21.33
2022-12-04T17:35:37.489Z,23.63
2022-12-04T17:38:25.898Z,22.60
2022-12-04T17:41:04.094Z,23.17
2022-12-04T17:43:33.007Z,21.10
2022-12-04T17:46:02.150Z,23.63
2022-12-04T17:48:31.842Z,20.90
2022-12-04T17:51:08.027Z,24.27
2022-12-04T17:53:36.475Z,23.90
2022-12-04T17:56:07.375Z,22.73
2022-12-04T17:58:36.901Z,23.33
2022-12-04T18:01:07.211Z,23.63
2022-12-04T18:03:38.076Z,22.60
2022-12-04T18:06:14.170Z,22.03
2022-12-04T18:08:48.141Z,22.13
2022-12-04T18:11:18.860Z,21.70
2022-12-04T18:13:47.640Z,21.93
2022-12-04T18:16:16.042Z,22.63
2022-12-04T18:18:47.245Z,24.00
2022-12-04T18:21:16.241Z,22.73
2022-12-04T18:23:46.174Z,23.50
2022-12-04T18:26:16.886Z,22.70
2022-12-04T18:28:45.641Z,22.03
2022-12-04T18:31:15.527Z,22.70
2022-12-04T18:33:46.432Z,22.13
2022-12-04T18:36:17.630Z,22.00
2022-12-04T18:38:46.485Z,21.90
2022-12-04T18:41:16.239Z,22.43
2022-12-04T18:43:46.046Z,23.23
2022-12-04T18:46:16.947Z,25.87
2022-12-04T18:48:47.921Z,23.20
2022-12-04T18:51:21.796Z,22.23
2022-12-04T18:53:51.094Z,24.30
2022-12-04T18:56:20.405Z,23.30
2022-12-04T18:58:48.945Z,21.73
2022-12-04T19:01:19.642Z,23.30
2022-12-04T19:03:49.515Z,23.20
2022-12-04T19:06:17.816Z,23.30
2022-12-04T19:08:46.496Z,23.07
2022-12-04T19:11:20.268Z,22.33
2022-12-04T19:13:48.850Z,23.60
2022-12-04T19:16:23.912Z,21.70
2022-12-04T19:18:54.385Z,23.80
2022-12-04T19:21:22.657Z,23.83
2022-12-04T19:23:55.988Z,22.53
2022-12-04T19:26:27.002Z,23.43
2022-12-04T19:29:10.007Z,22.00
2022-12-04T19:31:45.331Z,23.43
2022-12-04T19:34:19.987Z,20.33
2022-12-04T19:36:51.427Z,21.90
2022-12-04T19:39:23.547Z,23.63
2022-12-04T19:41:53.050Z,21.77
2022-12-04T19:47:13.935Z,22.80
2022-12-04T19:49:52.232Z,22.10
2022-12-04T19:52:25.804Z,22.13
2022-12-04T19:54:56.214Z,20.80
2022-12-04T19:57:47.473Z,20.27
2022-12-04T20:00:24.210Z,22.63
2022-12-04T20:02:55.668Z,20.97
2022-12-04T20:05:28.152Z,19.67
2022-12-04T20:10:32.969Z,18.23
2022-12-04T20:13:24.852Z,19.93
2022-12-04T20:15:56.421Z,20.13
2022-12-04T20:18:29.191Z,20.57
2022-12-04T20:21:05.037Z,19.37
2022-12-04T20:23:35.849Z,20.13
2022-12-04T20:26:07.330Z,19.20
2022-12-04T20:28:38.176Z,18.77
2022-12-04T20:31:37.275Z,19.57
2022-12-04T20:34:15.731Z,19.67
2022-12-04T20:36:49.115Z,19.90
2022-12-04T20:39:22.397Z,19.73
2022-12-04T20:42:13.042Z,20.47
2022-12-04T20:44:43.325Z,19.33
2022-12-04T20:47:16.132Z,19.13
2022-12-04T20:49:47.087Z,19.17
2022-12-04T20:52:21.782Z,19.87
2022-12-04T20:54:55.206Z,18.63
2022-12-04T20:57:29.069Z,19.40
2022-12-04T20:59:57.854Z,20.07
2022-12-04T21:02:30.482Z,18.93
2022-12-04T21:05:01.421Z,19.83
2022-12-04T21:07:32.019Z,19.73
2022-12-04T21:10:00.936Z,19.80
2022-12-04T21:12:47.179Z,19.57
2022-12-04T21:15:55.897Z,20.70
2022-12-04T21:18:47.440Z,21.30
2022-12-04T21:21:17.782Z,19.30
2022-12-04T21:23:48.666Z,19.83
2022-12-04T21:26:21.552Z,21.83
2022-12-04T21:28:50.156Z,21.10
2022-12-04T21:31:18.687Z,21.50
2022-12-04T21:33:48.501Z,22.33
2022-12-04T21:36:18.400Z,20.20
2022-12-04T21:38:48.025Z,22.60
2022-12-04T21:41:36.520Z,22.10
2022-12-04T21:44:08.012Z,22.73
2022-12-04T21:46:51.203Z,21.17
2022-12-04T21:49:22.587Z,22.90
2022-12-04T21:51:57.813Z,21.93
2022-12-04T21:54:32.150Z,23.20
2022-12-04T21:57:02.080Z,22.73
2022-12-04T21:59:31.058Z,24.37
2022-12-04T22:02:02.212Z,23.57
2022-12-04T22:04:31.429Z,22.67
2022-12-04T22:07:01.050Z,22.53
2022-12-04T22:09:32.869Z,23.40
2022-12-04T22:15:14.797Z,23.03
2022-12-04T22:17:46.042Z,23.47
2022-12-04T22:20:17.460Z,22.23
2022-12-04T22:23:08.322Z,21.67
2022-12-04T22:25:39.520Z,21.07
2022-12-04T22:28:10.561Z,21.33
2022-12-04T22:30:40.792Z,22.37
2022-12-04T22:33:09.330Z,22.57
2022-12-04T22:35:46.457Z,22.50
2022-12-04T22:38:15.359Z,22.27
2022-12-04T22:41:06.846Z,25.27
2022-12-04T22:43:40.555Z,22.13
2022-12-04T22:46:12.320Z,23.47
2022-12-04T22:48:42.334Z,23.87
2022-12-04T22:51:14.388Z,24.40
2022-12-04T22:54:04.363Z,26.07
2022-12-04T22:56:34.198Z,25.17
2022-12-04T22:59:03.514Z,26.37
2022-12-04T23:01:35.803Z,25.97
2022-12-04T23:04:08.701Z,25.67
2022-12-04T23:06:37.889Z,24.10
2022-12-04T23:09:10.415Z,24.63
2022-12-04T23:11:43.019Z,23.70
2022-12-04T23:14:15.169Z,24.53
2022-12-04T23:16:44.280Z,24.37
2022-12-04T23:19:37.440Z,24.83
2022-12-04T23:22:06.954Z,25.53
2022-12-04T23:24:56.128Z,25.47
2022-12-04T23:27:28.003Z,23.83
2022-12-04T23:29:56.624Z,25.47
2022-12-04T23:32:25.266Z,24.93
2022-12-04T23:34:54.844Z,25.50
2022-12-04T23:37:24.207Z,23.17
2022-12-04T23:39:53.926Z,23.80
2022-12-04T23:42:23.114Z,24.70
2022-12-04T23:44:52.944Z,23.87
2022-12-04T23:47:24.259Z,22.23
2022-12-04T23:49:59.135Z,23.27
2022-12-04T23:52:29.919Z,24.50
2022-12-04T23:54:58.116Z,25.47
2022-12-04T23:57:30.408Z,23.03
